sensor_id;sensor_type;location;lat;lon;timestamp;temperature;humidity
67275;DHT22;55463;52.324;5.122;2024-03-02T00:00:22;8.79;87.22
67275;DHT22;55463;52.324;5.122;2024-03-02T00:02:49;8.83;87.21
67275;DHT22;55463;52.324;5.122;2024-03-02T00:05:19;8.76;88.54
67275;DHT22;55463;52.324;5.122;2024-03-02T00:07:47;8.79;87.85
67275;DHT22;55463;52.324;5.122;2024-03-02T00:10:20;8.79;87.83
67275;DHT22;55463;52.324;5.122;2024-03-02T00:12:48;8.81;87.81
67275;DHT22;55463;52.324;5.122;2024-03-02T00:18:04;8.75;88.42
67275;DHT22;55463;52.324;5.122;2024-03-02T00:20:30;8.75;88.71
67275;DHT22;55463;52.324;5.122;2024-03-02T00:23:06;8.72;88.81
67275;DHT22;55463;52.324;5.122;2024-03-02T00:25:43;8.70;88.94
67275;DHT22;55463;52.324;5.122;2024-03-02T00:28:25;8.66;89.36
67275;DHT22;55463;52.324;5.122;2024-03-02T00:33:16;8.41;91.78
67275;DHT22;55463;52.324;5.122;2024-03-02T00:35:44;8.24;92.87
67275;DHT22;55463;52.324;5.122;2024-03-02T00:38:10;8.12;93.42
67275;DHT22;55463;52.324;5.122;2024-03-02T00:40:35;7.98;94.02
67275;DHT22;55463;52.324;5.122;2024-03-02T00:43:01;7.84;94.40
67275;DHT22;55463;52.324;5.122;2024-03-02T00:45:28;7.82;94.79
67275;DHT22;55463;52.324;5.122;2024-03-02T00:47:54;7.69;95.63
67275;DHT22;55463;52.324;5.122;2024-03-02T00:50:19;7.65;96.17
67275;DHT22;55463;52.324;5.122;2024-03-02T00:52:47;7.56;96.59
67275;DHT22;55463;52.324;5.122;2024-03-02T00:55:16;7.51;96.75
67275;DHT22;55463;52.324;5.122;2024-03-02T00:57:44;7.45;97.19
67275;DHT22;55463;52.324;5.122;2024-03-02T01:00:10;7.39;97.27
67275;DHT22;55463;52.324;5.122;2024-03-02T01:02:40;7.35;97.61
67275;DHT22;55463;52.324;5.122;2024-03-02T01:05:05;7.34;97.74
67275;DHT22;55463;52.324;5.122;2024-03-02T01:07:31;7.32;97.78
67275;DHT22;55463;52.324;5.122;2024-03-02T01:09:56;7.30;97.78
67275;DHT22;55463;52.324;5.122;2024-03-02T01:12:22;7.25;97.70
67275;DHT22;55463;52.324;5.122;2024-03-02T01:14:47;7.20;97.96
67275;DHT22;55463;52.324;5.122;2024-03-02T01:17:12;7.21;97.89
67275;DHT22;55463;52.324;5.122;2024-03-02T01:19:39;7.15;98.08
67275;DHT22;55463;52.324;5.122;2024-03-02T01:22:06;7.15;97.90
67275;DHT22;55463;52.324;5.122;2024-03-02T01:24:31;7.13;97.98
67275;DHT22;55463;52.324;5.122;2024-03-02T01:26:56;7.10;98.00
67275;DHT22;55463;52.324;5.122;2024-03-02T01:29:22;7.08;98.17
67275;DHT22;55463;52.324;5.122;2024-03-02T01:31:47;7.07;98.25
67275;DHT22;55463;52.324;5.122;2024-03-02T01:34:13;7.05;98.37
67275;DHT22;55463;52.324;5.122;2024-03-02T01:36:38;7.03;98.33
67275;DHT22;55463;52.324;5.122;2024-03-02T01:39:03;7.00;98.35
67275;DHT22;55463;52.324;5.122;2024-03-02T01:41:29;6.97;98.31
67275;DHT22;55463;52.324;5.122;2024-03-02T01:43:54;6.96;98.42
67275;DHT22;55463;52.324;5.122;2024-03-02T01:46:20;6.96;98.44
67275;DHT22;55463;52.324;5.122;2024-03-02T01:48:45;6.93;98.58
67275;DHT22;55463;52.324;5.122;2024-03-02T01:51:10;6.94;98.54
67275;DHT22;55463;52.324;5.122;2024-03-02T01:53:36;6.93;98.26
67275;DHT22;55463;52.324;5.122;2024-03-02T01:56:04;6.92;98.59
67275;DHT22;55463;52.324;5.122;2024-03-02T01:58:30;6.90;98.52
67275;DHT22;55463;52.324;5.122;2024-03-02T02:00:55;6.87;98.63
67275;DHT22;55463;52.324;5.122;2024-03-02T02:03:21;6.90;98.82
67275;DHT22;55463;52.324;5.122;2024-03-02T02:05:46;6.89;99.15
67275;DHT22;55463;52.324;5.122;2024-03-02T02:08:13;6.83;99.18
67275;DHT22;55463;52.324;5.122;2024-03-02T02:10:38;6.85;99.25
67275;DHT22;55463;52.324;5.122;2024-03-02T02:13:04;6.86;99.02
67275;DHT22;55463;52.324;5.122;2024-03-02T02:15:29;6.80;99.12
67275;DHT22;55463;52.324;5.122;2024-03-02T02:17:56;6.82;99.14
67275;DHT22;55463;52.324;5.122;2024-03-02T02:20:22;6.77;98.84
67275;DHT22;55463;52.324;5.122;2024-03-02T02:22:58;6.79;99.01
67275;DHT22;55463;52.324;5.122;2024-03-02T02:25:24;6.79;98.90
67275;DHT22;55463;52.324;5.122;2024-03-02T02:27:49;6.75;98.75
67275;DHT22;55463;52.324;5.122;2024-03-02T02:30:21;6.77;98.74
67275;DHT22;55463;52.324;5.122;2024-03-02T02:32:47;6.73;98.95
67275;DHT22;55463;52.324;5.122;2024-03-02T02:35:13;6.73;98.88
67275;DHT22;55463;52.324;5.122;2024-03-02T02:37:38;6.71;98.92
67275;DHT22;55463;52.324;5.122;2024-03-02T02:40:04;6.68;98.76
67275;DHT22;55463;52.324;5.122;2024-03-02T02:42:30;6.69;98.82
67275;DHT22;55463;52.324;5.122;2024-03-02T02:44:55;6.71;98.67
67275;DHT22;55463;52.324;5.122;2024-03-02T02:47:21;6.66;98.84
67275;DHT22;55463;52.324;5.122;2024-03-02T02:49:46;6.68;98.93
67275;DHT22;55463;52.324;5.122;2024-03-02T02:52:12;6.66;98.95
67275;DHT22;55463;52.324;5.122;2024-03-02T02:54:37;6.62;98.94
67275;DHT22;55463;52.324;5.122;2024-03-02T02:57:03;6.58;98.93
67275;DHT22;55463;52.324;5.122;2024-03-02T02:59:28;6.56;98.88
67275;DHT22;55463;52.324;5.122;2024-03-02T03:01:54;6.58;98.79
67275;DHT22;55463;52.324;5.122;2024-03-02T03:04:19;6.56;98.82
67275;DHT22;55463;52.324;5.122;2024-03-02T03:06:45;6.56;98.47
67275;DHT22;55463;52.324;5.122;2024-03-02T03:09:11;6.53;98.45
67275;DHT22;55463;52.324;5.122;2024-03-02T03:11:36;6.58;98.59
67275;DHT22;55463;52.324;5.122;2024-03-02T03:14:02;6.55;98.50
67275;DHT22;55463;52.324;5.122;2024-03-02T03:16:28;6.58;98.43
67275;DHT22;55463;52.324;5.122;2024-03-02T03:18:53;6.56;98.22
67275;DHT22;55463;52.324;5.122;2024-03-02T03:21:19;6.56;98.33
67275;DHT22;55463;52.324;5.122;2024-03-02T03:23:44;6.56;98.41
67275;DHT22;55463;52.324;5.122;2024-03-02T03:26:10;6.58;98.15
67275;DHT22;55463;52.324;5.122;2024-03-02T03:28:35;6.56;98.33
67275;DHT22;55463;52.324;5.122;2024-03-02T03:31:01;6.64;98.14
67275;DHT22;55463;52.324;5.122;2024-03-02T03:33:27;6.64;98.02
67275;DHT22;55463;52.324;5.122;2024-03-02T03:35:55;6.59;98.00
67275;DHT22;55463;52.324;5.122;2024-03-02T03:38:20;6.58;98.12
67275;DHT22;55463;52.324;5.122;2024-03-02T03:40:45;6.61;98.10
67275;DHT22;55463;52.324;5.122;2024-03-02T03:43:11;6.61;98.31
67275;DHT22;55463;52.324;5.122;2024-03-02T03:45:36;6.56;97.86
67275;DHT22;55463;52.324;5.122;2024-03-02T03:48:02;6.55;97.85
67275;DHT22;55463;52.324;5.122;2024-03-02T03:50:28;6.56;97.95
67275;DHT22;55463;52.324;5.122;2024-03-02T03:52:53;6.56;97.89
67275;DHT22;55463;52.324;5.122;2024-03-02T03:55:18;6.55;97.91
67275;DHT22;55463;52.324;5.122;2024-03-02T03:57:44;6.55;97.95
67275;DHT22;55463;52.324;5.122;2024-03-02T04:00:10;6.53;97.85
67275;DHT22;55463;52.324;5.122;2024-03-02T04:02:36;6.56;97.85
67275;DHT22;55463;52.324;5.122;2024-03-02T04:05:01;6.58;97.95
67275;DHT22;55463;52.324;5.122;2024-03-02T04:07:30;6.56;97.72
67275;DHT22;55463;52.324;5.122;2024-03-02T04:09:55;6.59;97.79
67275;DHT22;55463;52.324;5.122;2024-03-02T04:12:21;6.59;97.59
67275;DHT22;55463;52.324;5.122;2024-03-02T04:14:47;6.61;97.70
67275;DHT22;55463;52.324;5.122;2024-03-02T04:17:12;6.62;97.69
67275;DHT22;55463;52.324;5.122;2024-03-02T04:19:38;6.61;97.72
67275;DHT22;55463;52.324;5.122;2024-03-02T04:22:04;6.62;97.74
67275;DHT22;55463;52.324;5.122;2024-03-02T04:24:32;6.59;97.68
67275;DHT22;55463;52.324;5.122;2024-03-02T04:26:57;6.66;97.51
67275;DHT22;55463;52.324;5.122;2024-03-02T04:29:23;6.66;97.40
67275;DHT22;55463;52.324;5.122;2024-03-02T04:31:48;6.64;97.37
67275;DHT22;55463;52.324;5.122;2024-03-02T04:34:14;6.66;96.97
67275;DHT22;55463;52.324;5.122;2024-03-02T04:36:39;6.65;96.98
67275;DHT22;55463;52.324;5.122;2024-03-02T04:39:04;6.65;97.21
67275;DHT22;55463;52.324;5.122;2024-03-02T04:41:30;6.68;97.34
67275;DHT22;55463;52.324;5.122;2024-03-02T04:43:55;6.62;97.15
67275;DHT22;55463;52.324;5.122;2024-03-02T04:46:21;6.64;97.21
67275;DHT22;55463;52.324;5.122;2024-03-02T04:48:46;6.56;97.26
67275;DHT22;55463;52.324;5.122;2024-03-02T04:51:11;6.55;97.17
67275;DHT22;55463;52.324;5.122;2024-03-02T04:53:38;6.52;97.20
67275;DHT22;55463;52.324;5.122;2024-03-02T04:56:06;6.45;97.16
67275;DHT22;55463;52.324;5.122;2024-03-02T04:58:50;6.42;97.01
67275;DHT22;55463;52.324;5.122;2024-03-02T05:01:15;6.38;97.21
67275;DHT22;55463;52.324;5.122;2024-03-02T05:03:42;6.35;97.29
67275;DHT22;55463;52.324;5.122;2024-03-02T05:06:07;6.31;97.42
67275;DHT22;55463;52.324;5.122;2024-03-02T05:08:33;6.30;97.34
67275;DHT22;55463;52.324;5.122;2024-03-02T05:10:59;6.25;97.46
67275;DHT22;55463;52.324;5.122;2024-03-02T05:13:44;6.21;97.52
67275;DHT22;55463;52.324;5.122;2024-03-02T05:16:10;6.21;97.56
67275;DHT22;55463;52.324;5.122;2024-03-02T05:18:37;6.21;97.47
67275;DHT22;55463;52.324;5.122;2024-03-02T05:21:05;6.20;97.58
67275;DHT22;55463;52.324;5.122;2024-03-02T05:23:31;6.16;97.53
67275;DHT22;55463;52.324;5.122;2024-03-02T05:25:56;6.16;97.61
67275;DHT22;55463;52.324;5.122;2024-03-02T05:28:21;6.14;97.64
67275;DHT22;55463;52.324;5.122;2024-03-02T05:30:47;6.11;97.65
67275;DHT22;55463;52.324;5.122;2024-03-02T05:33:12;6.07;97.67
67275;DHT22;55463;52.324;5.122;2024-03-02T05:35:38;6.06;97.72
67275;DHT22;55463;52.324;5.122;2024-03-02T05:38:03;6.03;97.80
67275;DHT22;55463;52.324;5.122;2024-03-02T05:40:32;6.00;97.76
67275;DHT22;55463;52.324;5.122;2024-03-02T05:42:57;6.00;97.84
67275;DHT22;55463;52.324;5.122;2024-03-02T05:45:22;5.97;97.77
67275;DHT22;55463;52.324;5.122;2024-03-02T05:47:48;5.96;97.76
67275;DHT22;55463;52.324;5.122;2024-03-02T05:50:13;5.94;97.80
67275;DHT22;55463;52.324;5.122;2024-03-02T05:52:38;5.92;97.60
67275;DHT22;55463;52.324;5.122;2024-03-02T05:55:04;5.90;97.59
67275;DHT22;55463;52.324;5.122;2024-03-02T05:57:30;5.86;97.61
67275;DHT22;55463;52.324;5.122;2024-03-02T06:00:24;5.83;97.59
67275;DHT22;55463;52.324;5.122;2024-03-02T06:02:50;5.83;97.50
67275;DHT22;55463;52.324;5.122;2024-03-02T06:05:15;5.80;97.57
67275;DHT22;55463;52.324;5.122;2024-03-02T06:07:42;5.77;97.43
67275;DHT22;55463;52.324;5.122;2024-03-02T06:10:08;5.77;97.40
67275;DHT22;55463;52.324;5.122;2024-03-02T06:12:34;5.75;97.35
67275;DHT22;55463;52.324;5.122;2024-03-02T06:14:59;5.76;97.17
67275;DHT22;55463;52.324;5.122;2024-03-02T06:17:25;5.75;97.27
67275;DHT22;55463;52.324;5.122;2024-03-02T06:19:50;5.75;97.18
67275;DHT22;55463;52.324;5.122;2024-03-02T06:22:15;5.75;96.99
67275;DHT22;55463;52.324;5.122;2024-03-02T06:24:41;5.73;96.91
67275;DHT22;55463;52.324;5.122;2024-03-02T06:27:09;5.75;96.69
67275;DHT22;55463;52.324;5.122;2024-03-02T06:29:35;5.75;96.40
67275;DHT22;55463;52.324;5.122;2024-03-02T06:32:00;5.76;96.24
67275;DHT22;55463;52.324;5.122;2024-03-02T06:34:26;5.77;96.40
67275;DHT22;55463;52.324;5.122;2024-03-02T06:36:51;5.77;96.21
67275;DHT22;55463;52.324;5.122;2024-03-02T06:39:16;5.76;96.10
67275;DHT22;55463;52.324;5.122;2024-03-02T06:41:42;5.82;95.94
67275;DHT22;55463;52.324;5.122;2024-03-02T06:44:12;5.85;96.11
67275;DHT22;55463;52.324;5.122;2024-03-02T06:46:37;5.87;96.18
67275;DHT22;55463;52.324;5.122;2024-03-02T06:49:03;5.92;96.19
67275;DHT22;55463;52.324;5.122;2024-03-02T06:51:29;5.94;96.33
67275;DHT22;55463;52.324;5.122;2024-03-02T06:53:54;5.97;96.37
67275;DHT22;55463;52.324;5.122;2024-03-02T06:56:20;5.99;96.37
67275;DHT22;55463;52.324;5.122;2024-03-02T06:58:46;6.02;96.27
67275;DHT22;55463;52.324;5.122;2024-03-02T07:01:12;6.02;96.44
67275;DHT22;55463;52.324;5.122;2024-03-02T07:03:37;6.09;96.31
67275;DHT22;55463;52.324;5.122;2024-03-02T07:06:05;6.13;96.39
67275;DHT22;55463;52.324;5.122;2024-03-02T07:08:30;6.21;96.29
67275;DHT22;55463;52.324;5.122;2024-03-02T07:10:55;6.32;95.84
67275;DHT22;55463;52.324;5.122;2024-03-02T07:13:22;6.49;95.30
67275;DHT22;55463;52.324;5.122;2024-03-02T07:15:47;6.82;95.08
67275;DHT22;55463;52.324;5.122;2024-03-02T07:18:25;7.58;92.76
67275;DHT22;55463;52.324;5.122;2024-03-02T07:20:50;7.80;90.97
67275;DHT22;55463;52.324;5.122;2024-03-02T07:23:15;7.89;90.52
67275;DHT22;55463;52.324;5.122;2024-03-02T07:25:41;7.84;89.61
67275;DHT22;55463;52.324;5.122;2024-03-02T07:28:06;7.83;89.65
67275;DHT22;55463;52.324;5.122;2024-03-02T07:30:32;7.86;89.97
67275;DHT22;55463;52.324;5.122;2024-03-02T07:32:59;8.03;89.81
67275;DHT22;55463;52.324;5.122;2024-03-02T07:35:24;7.95;89.20
67275;DHT22;55463;52.324;5.122;2024-03-02T07:37:53;8.11;88.87
67275;DHT22;55463;52.324;5.122;2024-03-02T07:40:19;8.07;88.81
67275;DHT22;55463;52.324;5.122;2024-03-02T07:42:45;7.98;89.22
67275;DHT22;55463;52.324;5.122;2024-03-02T07:45:10;7.66;89.07
67275;DHT22;55463;52.324;5.122;2024-03-02T07:47:36;7.52;89.83
67275;DHT22;55463;52.324;5.122;2024-03-02T07:50:02;7.35;90.33
67275;DHT22;55463;52.324;5.122;2024-03-02T07:52:28;7.22;90.56
67275;DHT22;55463;52.324;5.122;2024-03-02T07:54:53;7.17;91.07
67275;DHT22;55463;52.324;5.122;2024-03-02T07:57:19;7.10;90.74
67275;DHT22;55463;52.324;5.122;2024-03-02T07:59:45;7.03;91.27
67275;DHT22;55463;52.324;5.122;2024-03-02T08:02:10;7.00;91.66
67275;DHT22;55463;52.324;5.122;2024-03-02T08:04:37;6.96;92.02
67275;DHT22;55463;52.324;5.122;2024-03-02T08:07:03;6.92;92.13
67275;DHT22;55463;52.324;5.122;2024-03-02T08:09:32;6.92;92.03
67275;DHT22;55463;52.324;5.122;2024-03-02T08:11:57;6.90;92.24
67275;DHT22;55463;52.324;5.122;2024-03-02T08:14:26;6.92;92.25
67275;DHT22;55463;52.324;5.122;2024-03-02T08:16:52;6.92;92.33
67275;DHT22;55463;52.324;5.122;2024-03-02T08:19:17;6.90;92.50
67275;DHT22;55463;52.324;5.122;2024-03-02T08:21:43;7.00;92.49
67275;DHT22;55463;52.324;5.122;2024-03-02T08:24:09;7.03;92.35
67275;DHT22;55463;52.324;5.122;2024-03-02T08:26:34;7.10;91.89
67275;DHT22;55463;52.324;5.122;2024-03-02T08:29:00;7.10;91.79
67275;DHT22;55463;52.324;5.122;2024-03-02T08:31:27;7.15;91.90
67275;DHT22;55463;52.324;5.122;2024-03-02T08:33:53;7.20;92.23
67275;DHT22;55463;52.324;5.122;2024-03-02T08:36:18;7.24;92.02
67275;DHT22;55463;52.324;5.122;2024-03-02T08:38:45;7.32;91.57
67275;DHT22;55463;52.324;5.122;2024-03-02T08:41:10;7.35;91.22
67275;DHT22;55463;52.324;5.122;2024-03-02T08:43:38;7.38;91.50
67275;DHT22;55463;52.324;5.122;2024-03-02T08:46:05;7.39;91.15
67275;DHT22;55463;52.324;5.122;2024-03-02T08:48:30;7.45;91.25
67275;DHT22;55463;52.324;5.122;2024-03-02T08:50:56;7.48;91.10
67275;DHT22;55463;52.324;5.122;2024-03-02T08:53:21;7.56;90.56
67275;DHT22;55463;52.324;5.122;2024-03-02T08:55:47;7.55;90.65
67275;DHT22;55463;52.324;5.122;2024-03-02T08:58:12;7.61;90.49
67275;DHT22;55463;52.324;5.122;2024-03-02T09:00:38;7.66;90.92
67275;DHT22;55463;52.324;5.122;2024-03-02T09:03:04;7.83;90.75
67275;DHT22;55463;52.324;5.122;2024-03-02T09:05:29;8.27;90.37
67275;DHT22;55463;52.324;5.122;2024-03-02T09:07:54;8.73;88.65
67275;DHT22;55463;52.324;5.122;2024-03-02T09:10:20;9.20;87.60
67275;DHT22;55463;52.324;5.122;2024-03-02T09:12:46;9.76;86.80
67275;DHT22;55463;52.324;5.122;2024-03-02T09:15:11;10.22;85.86
67275;DHT22;55463;52.324;5.122;2024-03-02T09:17:37;10.59;83.97
67275;DHT22;55463;52.324;5.122;2024-03-02T09:20:02;11.11;83.45
67275;DHT22;55463;52.324;5.122;2024-03-02T09:22:29;11.22;80.16
67275;DHT22;55463;52.324;5.122;2024-03-02T09:24:55;11.42;80.09
67275;DHT22;55463;52.324;5.122;2024-03-02T09:27:21;11.94;80.74
67275;DHT22;55463;52.324;5.122;2024-03-02T09:29:46;12.14;78.45
67275;DHT22;55463;52.324;5.122;2024-03-02T09:32:12;12.18;77.47
67275;DHT22;55463;52.324;5.122;2024-03-02T09:34:41;12.34;77.86
67275;DHT22;55463;52.324;5.122;2024-03-02T09:37:07;12.67;77.07
67275;DHT22;55463;52.324;5.122;2024-03-02T09:39:33;12.83;76.01
67275;DHT22;55463;52.324;5.122;2024-03-02T09:41:59;12.91;75.80
67275;DHT22;55463;52.324;5.122;2024-03-02T09:44:25;12.77;74.87
67275;DHT22;55463;52.324;5.122;2024-03-02T09:46:51;12.60;75.51
67275;DHT22;55463;52.324;5.122;2024-03-02T09:49:17;12.84;75.16
67275;DHT22;55463;52.324;5.122;2024-03-02T09:51:47;13.41;75.11
67275;DHT22;55463;52.324;5.122;2024-03-02T09:54:13;13.42;73.63
67275;DHT22;55463;52.324;5.122;2024-03-02T09:56:39;13.28;72.60
67275;DHT22;55463;52.324;5.122;2024-03-02T09:59:04;13.43;72.42
67275;DHT22;55463;52.324;5.122;2024-03-02T10:01:30;14.01;73.44
67275;DHT22;55463;52.324;5.122;2024-03-02T10:03:59;14.01;71.28
67275;DHT22;55463;52.324;5.122;2024-03-02T10:06:26;14.31;72.34
67275;DHT22;55463;52.324;5.122;2024-03-02T10:08:52;14.04;70.77
67275;DHT22;55463;52.324;5.122;2024-03-02T10:11:31;14.15;69.69
67275;DHT22;55463;52.324;5.122;2024-03-02T10:14:07;14.20;70.57
67275;DHT22;55463;52.324;5.122;2024-03-02T10:16:34;14.39;71.10
67275;DHT22;55463;52.324;5.122;2024-03-02T10:19:21;14.80;69.80
67275;DHT22;55463;52.324;5.122;2024-03-02T10:21:48;14.39;68.24
67275;DHT22;55463;52.324;5.122;2024-03-02T10:24:15;14.31;68.07
67275;DHT22;55463;52.324;5.122;2024-03-02T10:26:40;14.24;69.51
67275;DHT22;55463;52.324;5.122;2024-03-02T10:29:08;14.00;67.34
67275;DHT22;55463;52.324;5.122;2024-03-02T10:31:34;14.24;68.49
67275;DHT22;55463;52.324;5.122;2024-03-02T10:33:59;14.56;67.29
67275;DHT22;55463;52.324;5.122;2024-03-02T10:36:25;14.94;67.31
67275;DHT22;55463;52.324;5.122;2024-03-02T10:38:51;15.03;67.22
67275;DHT22;55463;52.324;5.122;2024-03-02T10:41:23;15.08;66.65
67275;DHT22;55463;52.324;5.122;2024-03-02T10:43:51;14.87;66.70
67275;DHT22;55463;52.324;5.122;2024-03-02T10:46:19;15.15;67.13
67275;DHT22;55463;52.324;5.122;2024-03-02T10:48:46;15.18;66.33
67275;DHT22;55463;52.324;5.122;2024-03-02T10:51:12;15.10;65.43
67275;DHT22;55463;52.324;5.122;2024-03-02T10:53:37;15.05;65.64
67275;DHT22;55463;52.324;5.122;2024-03-02T10:56:04;15.00;64.17
67275;DHT22;55463;52.324;5.122;2024-03-02T10:58:32;15.24;65.04
67275;DHT22;55463;52.324;5.122;2024-03-02T11:01:03;15.41;65.84
67275;DHT22;55463;52.324;5.122;2024-03-02T11:03:35;15.22;64.08
67275;DHT22;55463;52.324;5.122;2024-03-02T11:06:03;15.14;64.71
67275;DHT22;55463;52.324;5.122;2024-03-02T11:08:34;15.22;64.46
67275;DHT22;55463;52.324;5.122;2024-03-02T11:11:06;15.46;66.02
67275;DHT22;55463;52.324;5.122;2024-03-02T11:13:33;15.65;64.75
67275;DHT22;55463;52.324;5.122;2024-03-02T11:18:51;16.08;63.14
67275;DHT22;55463;52.324;5.122;2024-03-02T11:21:17;15.71;62.50
67275;DHT22;55463;52.324;5.122;2024-03-02T11:23:43;14.88;62.36
67275;DHT22;55463;52.324;5.122;2024-03-02T11:26:19;14.98;64.12
67275;DHT22;55463;52.324;5.122;2024-03-02T11:28:45;15.35;64.33
67275;DHT22;55463;52.324;5.122;2024-03-02T11:31:11;15.41;63.51
67275;DHT22;55463;52.324;5.122;2024-03-02T11:33:39;15.07;62.27
67275;DHT22;55463;52.324;5.122;2024-03-02T11:36:08;15.82;63.63
67275;DHT22;55463;52.324;5.122;2024-03-02T11:38:34;15.82;63.10
67275;DHT22;55463;52.324;5.122;2024-03-02T11:41:02;15.32;61.71
67275;DHT22;55463;52.324;5.122;2024-03-02T11:43:28;15.39;62.04
67275;DHT22;55463;52.324;5.122;2024-03-02T11:46:01;15.46;61.92
67275;DHT22;55463;52.324;5.122;2024-03-02T11:48:29;15.71;62.88
67275;DHT22;55463;52.324;5.122;2024-03-02T11:50:58;15.76;60.93
67275;DHT22;55463;52.324;5.122;2024-03-02T11:53:27;16.04;61.68
67275;DHT22;55463;52.324;5.122;2024-03-02T11:55:55;15.62;61.44
67275;DHT22;55463;52.324;5.122;2024-03-02T11:58:21;15.77;62.66
67275;DHT22;55463;52.324;5.122;2024-03-02T12:00:53;15.84;62.46
67275;DHT22;55463;52.324;5.122;2024-03-02T12:03:21;15.83;60.70
67275;DHT22;55463;52.324;5.122;2024-03-02T12:05:52;16.51;62.67
67275;DHT22;55463;52.324;5.122;2024-03-02T12:08:21;16.55;60.89
67275;DHT22;55463;52.324;5.122;2024-03-02T12:10:58;16.22;60.71
67275;DHT22;55463;52.324;5.122;2024-03-02T12:13:24;16.44;61.19
67275;DHT22;55463;52.324;5.122;2024-03-02T12:15:59;16.48;60.98
67275;DHT22;55463;52.324;5.122;2024-03-02T12:18:25;16.48;61.11
67275;DHT22;55463;52.324;5.122;2024-03-02T12:20:51;16.52;60.93
67275;DHT22;55463;52.324;5.122;2024-03-02T12:23:18;16.42;61.37
67275;DHT22;55463;52.324;5.122;2024-03-02T12:25:44;16.44;61.72
67275;DHT22;55463;52.324;5.122;2024-03-02T12:28:10;16.07;61.34
67275;DHT22;55463;52.324;5.122;2024-03-02T12:30:35;16.60;62.94
67275;DHT22;55463;52.324;5.122;2024-03-02T12:33:01;16.88;62.39
67275;DHT22;55463;52.324;5.122;2024-03-02T12:35:27;16.66;60.93
67275;DHT22;55463;52.324;5.122;2024-03-02T12:37:53;16.74;59.74
67275;DHT22;55463;52.324;5.122;2024-03-02T12:40:20;16.55;59.86
67275;DHT22;55463;52.324;5.122;2024-03-02T12:42:47;16.90;59.65
67275;DHT22;55463;52.324;5.122;2024-03-02T12:45:13;17.27;61.01
67275;DHT22;55463;52.324;5.122;2024-03-02T12:47:40;16.87;60.04
67275;DHT22;55463;52.324;5.122;2024-03-02T12:50:06;16.79;59.25
67275;DHT22;55463;52.324;5.122;2024-03-02T12:52:32;16.35;57.72
67275;DHT22;55463;52.324;5.122;2024-03-02T12:55:00;16.17;59.77
67275;DHT22;55463;52.324;5.122;2024-03-02T12:57:26;16.42;59.52
67275;DHT22;55463;52.324;5.122;2024-03-02T13:00:05;15.98;58.26
67275;DHT22;55463;52.324;5.122;2024-03-02T13:02:41;16.28;58.88
67275;DHT22;55463;52.324;5.122;2024-03-02T13:05:08;16.52;59.98
67275;DHT22;55463;52.324;5.122;2024-03-02T13:07:37;16.03;57.84
67275;DHT22;55463;52.324;5.122;2024-03-02T13:10:02;16.10;58.80
67275;DHT22;55463;52.324;5.122;2024-03-02T13:12:29;16.01;58.46
67275;DHT22;55463;52.324;5.122;2024-03-02T13:14:57;15.82;57.34
67275;DHT22;55463;52.324;5.122;2024-03-02T13:17:23;16.01;58.00
67275;DHT22;55463;52.324;5.122;2024-03-02T13:22:18;16.22;58.52
67275;DHT22;55463;52.324;5.122;2024-03-02T13:24:43;15.86;57.33
67275;DHT22;55463;52.324;5.122;2024-03-02T13:27:08;15.91;57.40
67275;DHT22;55463;52.324;5.122;2024-03-02T13:29:34;16.25;57.87
67275;DHT22;55463;52.324;5.122;2024-03-02T13:31:59;16.45;58.78
67275;DHT22;55463;52.324;5.122;2024-03-02T13:34:25;17.07;59.23
67275;DHT22;55463;52.324;5.122;2024-03-02T13:36:50;17.07;58.18
67275;DHT22;55463;52.324;5.122;2024-03-02T13:39:15;17.27;58.18
67275;DHT22;55463;52.324;5.122;2024-03-02T13:41:41;17.06;57.17
67275;DHT22;55463;52.324;5.122;2024-03-02T13:44:06;16.84;59.80
67275;DHT22;55463;52.324;5.122;2024-03-02T13:46:32;16.65;60.87
67275;DHT22;55463;52.324;5.122;2024-03-02T13:48:57;16.17;59.34
67275;DHT22;55463;52.324;5.122;2024-03-02T13:51:23;16.01;59.52
67275;DHT22;55463;52.324;5.122;2024-03-02T13:53:50;16.00;59.59
67275;DHT22;55463;52.324;5.122;2024-03-02T13:56:16;15.67;59.46
67275;DHT22;55463;52.324;5.122;2024-03-02T13:58:42;15.93;61.75
67275;DHT22;55463;52.324;5.122;2024-03-02T14:01:09;15.60;60.42
67275;DHT22;55463;52.324;5.122;2024-03-02T14:03:34;15.59;61.50
67275;DHT22;55463;52.324;5.122;2024-03-02T14:06:00;15.35;61.06
67275;DHT22;55463;52.324;5.122;2024-03-02T14:08:25;14.91;61.35
67275;DHT22;55463;52.324;5.122;2024-03-02T14:10:50;15.05;63.58
67275;DHT22;55463;52.324;5.122;2024-03-02T14:13:16;14.94;64.29
67275;DHT22;55463;52.324;5.122;2024-03-02T14:15:42;14.73;65.15
67275;DHT22;55463;52.324;5.122;2024-03-02T14:18:07;14.62;65.01
67275;DHT22;55463;52.324;5.122;2024-03-02T14:20:35;14.52;65.91
67275;DHT22;55463;52.324;5.122;2024-03-02T14:23:00;14.50;67.05
67275;DHT22;55463;52.324;5.122;2024-03-02T14:25:28;14.24;65.73
67275;DHT22;55463;52.324;5.122;2024-03-02T14:27:56;14.33;67.87
67275;DHT22;55463;52.324;5.122;2024-03-02T14:30:23;14.32;67.94
67275;DHT22;55463;52.324;5.122;2024-03-02T14:32:48;14.39;68.10
67275;DHT22;55463;52.324;5.122;2024-03-02T14:35:14;14.25;67.72
67275;DHT22;55463;52.324;5.122;2024-03-02T14:37:40;14.32;68.18
67275;DHT22;55463;52.324;5.122;2024-03-02T14:40:06;14.58;68.53
67275;DHT22;55463;52.324;5.122;2024-03-02T14:42:33;14.72;67.08
67275;DHT22;55463;52.324;5.122;2024-03-02T14:44:59;14.66;66.17
67275;DHT22;55463;52.324;5.122;2024-03-02T14:47:24;14.67;66.24
67275;DHT22;55463;52.324;5.122;2024-03-02T14:49:50;14.95;68.18
67275;DHT22;55463;52.324;5.122;2024-03-02T14:52:15;14.87;66.25
67275;DHT22;55463;52.324;5.122;2024-03-02T14:54:42;15.12;66.49
67275;DHT22;55463;52.324;5.122;2024-03-02T14:57:08;14.88;66.20
67275;DHT22;55463;52.324;5.122;2024-03-02T14:59:33;14.65;66.58
67275;DHT22;55463;52.324;5.122;2024-03-02T15:01:59;14.42;67.08
67275;DHT22;55463;52.324;5.122;2024-03-02T15:04:24;14.25;68.08
67275;DHT22;55463;52.324;5.122;2024-03-02T15:06:49;14.10;67.50
67275;DHT22;55463;52.324;5.122;2024-03-02T15:09:15;13.91;67.84
67275;DHT22;55463;52.324;5.122;2024-03-02T15:11:46;13.79;67.63
67275;DHT22;55463;52.324;5.122;2024-03-02T15:14:12;13.55;67.63
67275;DHT22;55463;52.324;5.122;2024-03-02T15:16:38;13.46;68.55
67275;DHT22;55463;52.324;5.122;2024-03-02T15:19:03;13.32;68.42
67275;DHT22;55463;52.324;5.122;2024-03-02T15:21:29;13.34;69.23
67275;DHT22;55463;52.324;5.122;2024-03-02T15:23:54;13.21;69.06
67275;DHT22;55463;52.324;5.122;2024-03-02T15:26:20;13.19;69.05
67275;DHT22;55463;52.324;5.122;2024-03-02T15:28:45;13.15;69.92
67275;DHT22;55463;52.324;5.122;2024-03-02T15:31:10;13.08;69.67
67275;DHT22;55463;52.324;5.122;2024-03-02T15:33:36;13.10;69.91
67275;DHT22;55463;52.324;5.122;2024-03-02T15:36:01;13.08;70.46
67275;DHT22;55463;52.324;5.122;2024-03-02T15:38:27;13.10;69.91
67275;DHT22;55463;52.324;5.122;2024-03-02T15:40:52;13.11;70.55
67275;DHT22;55463;52.324;5.122;2024-03-02T15:43:20;13.11;71.89
67275;DHT22;55463;52.324;5.122;2024-03-02T15:45:46;13.14;71.16